createdAt,value
2024-03-25T00:01:42.792Z,58.43
2024-03-25T00:04:13.931Z,58.77
2024-03-25T00:06:44.812Z,58.93
2024-03-25T00:09:15.656Z,58.87
2024-03-25T00:11:46.548Z,59.26
2024-03-25T00:14:17.528Z,58.93
2024-03-25T00:16:48.248Z,59.45
2024-03-25T00:19:19.433Z,59.49
2024-03-25T00:21:50.187Z,59.11
2024-03-25T00:24:20.953Z,59.37
2024-03-25T00:26:51.665Z,59.47
2024-03-25T00:29:22.588Z,59.73
2024-03-25T00:31:53.415Z,59.44
2024-03-25T00:34:24.392Z,60.29
2024-03-25T00:36:55.394Z,59.85
2024-03-25T00:39:27.186Z,59.79
2024-03-25T00:41:58.087Z,60.45
2024-03-25T00:44:28.836Z,60.03
2024-03-25T00:46:59.710Z,60.24
2024-03-25T00:49:31.002Z,60.30
2024-03-25T00:52:01.764Z,60.98
2024-03-25T00:54:33.603Z,61.77
2024-03-25T00:57:04.876Z,62.03
2024-03-25T00:59:36.205Z,61.85
2024-03-25T01:02:07.882Z,62.00
2024-03-25T01:04:38.771Z,61.49
2024-03-25T01:07:09.571Z,61.86
2024-03-25T01:09:40.430Z,61.82
2024-03-25T01:12:11.350Z,61.44
2024-03-25T01:14:42.518Z,62.56
2024-03-25T01:17:13.841Z,63.47
2024-03-25T01:19:45.095Z,62.63
2024-03-25T01:22:15.843Z,64.04
2024-03-25T01:24:47.018Z,63.27
2024-03-25T01:27:17.767Z,63.05
2024-03-25T01:29:48.529Z,63.43
2024-03-25T01:32:19.640Z,63.33
2024-03-25T01:34:50.938Z,62.94
2024-03-25T01:37:21.683Z,62.96
2024-03-25T01:39:52.663Z,62.46
2024-03-25T01:42:23.475Z,62.01
2024-03-25T01:44:54.881Z,62.72
2024-03-25T01:47:25.710Z,62.12
2024-03-25T01:49:57.590Z,62.80
2024-03-25T01:52:30.307Z,62.50
2024-03-25T01:55:04.619Z,61.17
2024-03-25T01:57:35.703Z,60.96
2024-03-25T02:00:09.233Z,61.79
2024-03-25T02:02:44.968Z,61.65
2024-03-25T02:05:16.880Z,62.47
2024-03-25T02:07:48.196Z,62.28
2024-03-25T02:10:19.337Z,62.32
2024-03-25T02:12:51.323Z,63.06
2024-03-25T02:15:23.167Z,61.74
2024-03-25T02:17:53.873Z,62.53
2024-03-25T02:20:24.703Z,62.15
2024-03-25T02:22:55.867Z,62.93
2024-03-25T02:25:27.747Z,64.27
2024-03-25T02:27:58.585Z,63.60
2024-03-25T02:30:29.839Z,63.43
2024-03-25T02:33:00.569Z,63.84
2024-03-25T02:35:32.170Z,63.13
2024-03-25T02:38:04.195Z,62.92
2024-03-25T02:40:35.496Z,63.14
2024-03-25T02:43:08.147Z,63.17
2024-03-25T02:45:39.240Z,63.31
2024-03-25T02:48:10.458Z,63.63
2024-03-25T02:50:41.369Z,64.55
2024-03-25T02:53:12.486Z,63.14
2024-03-25T02:55:43.340Z,64.13
2024-03-25T02:58:14.122Z,64.59
2024-03-25T03:00:44.878Z,63.80
2024-03-25T03:03:15.694Z,64.00
2024-03-25T03:05:46.627Z,63.66
2024-03-25T03:08:17.275Z,63.90
2024-03-25T03:10:48.036Z,63.20
2024-03-25T03:13:18.788Z,63.32
2024-03-25T03:15:49.684Z,63.28
2024-03-25T03:18:20.369Z,63.28
2024-03-25T03:20:51.389Z,63.85
2024-03-25T03:23:22.204Z,63.21
2024-03-25T03:25:53.703Z,63.91
2024-03-25T03:28:24.512Z,64.11
2024-03-25T03:30:55.301Z,64.18
2024-03-25T03:33:26.121Z,64.36
2024-03-25T03:35:57.621Z,64.11
2024-03-25T03:38:28.404Z,64.56
2024-03-25T03:41:04.713Z,64.40
2024-03-25T03:43:35.566Z,64.21
2024-03-25T03:46:07.086Z,64.05
2024-03-25T03:48:39.096Z,63.87
2024-03-25T03:51:10.466Z,63.70
2024-03-25T03:53:41.522Z,64.41
2024-03-25T03:56:12.372Z,63.28
2024-03-25T03:58:43.202Z,63.29
2024-03-25T04:01:20.508Z,63.39
2024-03-25T04:03:51.509Z,62.79
2024-03-25T04:06:22.457Z,62.95
2024-03-25T04:08:53.192Z,63.16
2024-03-25T04:11:23.918Z,62.57
2024-03-25T04:13:54.624Z,63.22
2024-03-25T04:16:25.360Z,62.71
2024-03-25T04:18:57.612Z,63.42
2024-03-25T04:21:28.369Z,62.96
2024-03-25T04:23:59.012Z,63.40
2024-03-25T04:26:29.826Z,63.47
2024-03-25T04:29:00.684Z,63.76
2024-03-25T04:31:31.444Z,63.78
2024-03-25T04:34:02.286Z,63.86
2024-03-25T04:36:33.053Z,65.42
2024-03-25T04:39:04.782Z,64.83
2024-03-25T04:41:35.900Z,66.06
2024-03-25T04:44:06.894Z,65.42
2024-03-25T04:46:37.680Z,65.76
2024-03-25T04:49:08.677Z,66.35
2024-03-25T04:51:39.526Z,66.61
2024-03-25T04:54:10.206Z,66.58
2024-03-25T04:56:41.574Z,66.01
2024-03-25T04:59:12.499Z,66.20
2024-03-25T05:01:43.263Z,66.09
2024-03-25T05:04:13.998Z,65.92
2024-03-25T05:06:44.844Z,65.85
2024-03-25T05:09:17.319Z,65.39
2024-03-25T05:11:48.107Z,65.48
2024-03-25T05:14:18.876Z,66.58
2024-03-25T05:16:50.417Z,67.33
2024-03-25T05:19:21.391Z,67.48
2024-03-25T05:21:52.099Z,67.65
2024-03-25T05:24:23.189Z,67.67
2024-03-25T05:26:53.895Z,67.62
2024-03-25T05:29:25.473Z,69.12
2024-03-25T05:32:03.265Z,68.01
2024-03-25T05:34:33.938Z,66.02
2024-03-25T05:37:04.668Z,66.81
2024-03-25T05:39:35.379Z,67.33
2024-03-25T05:42:07.670Z,65.73
2024-03-25T05:44:38.632Z,67.25
2024-03-25T05:47:09.408Z,66.15
2024-03-25T05:49:40.337Z,66.26
2024-03-25T05:52:11.204Z,66.34
2024-03-25T05:54:42.004Z,66.39
2024-03-25T05:57:12.758Z,66.20
2024-03-25T05:59:43.476Z,66.45
2024-03-25T06:02:14.793Z,67.21
2024-03-25T06:04:45.500Z,65.71
2024-03-25T06:07:16.379Z,66.15
2024-03-25T06:09:47.905Z,65.78
2024-03-25T06:12:18.680Z,66.20
2024-03-25T06:14:50.493Z,66.84
2024-03-25T06:17:21.300Z,66.74
2024-03-25T06:19:53.287Z,66.32
2024-03-25T06:22:24.408Z,65.88
2024-03-25T06:24:55.219Z,65.61
2024-03-25T06:27:25.920Z,65.55
2024-03-25T06:30:16.700Z,64.91
2024-03-25T06:33:02.065Z,64.53
2024-03-25T06:35:32.803Z,64.23
2024-03-25T06:38:03.655Z,63.45
2024-03-25T06:40:34.476Z,61.90
2024-03-25T06:43:05.930Z,62.08
2024-03-25T06:45:36.609Z,62.07
2024-03-25T06:48:09.326Z,59.27
2024-03-25T06:50:40.146Z,56.58
2024-03-25T06:53:11.023Z,57.27
2024-03-25T06:55:42.062Z,55.82
2024-03-25T06:58:12.713Z,55.61
2024-03-25T07:00:43.789Z,53.81
2024-03-25T07:03:14.680Z,54.59
2024-03-25T07:05:47.920Z,54.83
2024-03-25T07:08:20.110Z,53.86
2024-03-25T07:10:50.988Z,53.45
2024-03-25T07:13:22.298Z,49.25
2024-03-25T07:15:54.996Z,49.54
2024-03-25T07:18:26.029Z,48.29
2024-03-25T07:20:56.776Z,42.02
2024-03-25T07:23:28.039Z,41.56
2024-03-25T07:25:58.774Z,36.00
2024-03-25T07:28:30.303Z,36.66
2024-03-25T07:31:02.140Z,35.79
2024-03-25T07:33:33.026Z,29.41
2024-03-25T07:36:05.729Z,25.46
2024-03-25T07:38:36.668Z,26.33
2024-03-25T07:41:08.229Z,25.67
2024-03-25T07:43:39.628Z,25.09
2024-03-25T07:46:10.423Z,25.11
2024-03-25T07:48:41.311Z,23.30
2024-03-25T07:51:12.122Z,21.26
2024-03-25T07:53:43.533Z,20.49
2024-03-25T07:56:14.905Z,18.47
2024-03-25T07:58:45.697Z,19.15
2024-03-25T08:01:16.835Z,19.20
2024-03-25T08:03:47.716Z,22.43
2024-03-25T08:06:18.569Z,24.53
2024-03-25T08:08:49.693Z,26.77
2024-03-25T08:11:20.973Z,28.48
2024-03-25T08:13:51.953Z,29.18
2024-03-25T08:16:22.694Z,28.85
2024-03-25T08:18:53.517Z,27.09
2024-03-25T08:21:24.999Z,28.94
2024-03-25T08:23:56.181Z,30.35
2024-03-25T08:26:27.078Z,31.25
2024-03-25T08:28:57.788Z,32.23
2024-03-25T08:31:28.818Z,33.47
2024-03-25T08:34:00.386Z,35.54
2024-03-25T08:36:31.119Z,35.97
2024-03-25T08:39:01.869Z,36.32
2024-03-25T08:41:33.926Z,37.49
2024-03-25T08:44:05.306Z,37.32
2024-03-25T08:46:36.461Z,37.22
2024-03-25T08:49:07.652Z,37.55
2024-03-25T08:51:38.720Z,38.58
2024-03-25T08:54:09.662Z,39.39
2024-03-25T08:56:40.654Z,39.97
2024-03-25T08:59:11.463Z,39.39
2024-03-25T09:01:42.263Z,38.95
2024-03-25T09:04:26.029Z,40.02
2024-03-25T09:06:59.096Z,39.89
2024-03-25T09:09:43.863Z,40.22
2024-03-25T09:12:14.933Z,40.01
2024-03-25T09:14:45.745Z,39.57
2024-03-25T09:17:17.074Z,39.76
2024-03-25T09:19:47.953Z,40.41
2024-03-25T09:22:18.980Z,41.03
2024-03-25T09:24:50.357Z,41.90
2024-03-25T09:27:21.406Z,41.78
2024-03-25T09:29:52.350Z,43.29
2024-03-25T09:32:24.757Z,43.65
2024-03-25T09:34:57.006Z,43.53
2024-03-25T09:37:28.440Z,43.36
2024-03-25T09:39:59.756Z,42.84
2024-03-25T09:42:35.666Z,42.43
2024-03-25T09:45:11.530Z,40.36
2024-03-25T09:47:44.820Z,40.20
2024-03-25T09:50:20.471Z,41.09
2024-03-25T09:52:51.785Z,41.53
2024-03-25T09:55:22.636Z,41.88
2024-03-25T09:57:54.156Z,42.92
2024-03-25T10:00:25.099Z,43.10
2024-03-25T10:02:55.939Z,44.01
2024-03-25T10:05:27.460Z,43.04
2024-03-25T10:07:58.768Z,42.96
2024-03-25T10:10:29.726Z,42.67
2024-03-25T10:13:00.867Z,41.76
2024-03-25T10:15:32.115Z,40.99
2024-03-25T10:18:03.047Z,41.02
2024-03-25T10:20:35.634Z,40.21
2024-03-25T10:23:07.262Z,40.14
2024-03-25T10:25:38.497Z,39.67
2024-03-25T10:28:12.336Z,38.96
2024-03-25T10:30:44.195Z,39.49
2024-03-25T10:33:15.172Z,38.71
2024-03-25T10:35:52.180Z,38.64
2024-03-25T10:38:24.942Z,36.82
2024-03-25T10:40:59.456Z,36.32
2024-03-25T10:43:33.042Z,37.65
2024-03-25T10:46:05.608Z,36.60
2024-03-25T10:48:39.102Z,36.69
2024-03-25T10:51:11.533Z,34.00
2024-03-25T10:53:44.839Z,34.37
2024-03-25T10:56:17.350Z,34.54
2024-03-25T10:58:49.933Z,35.08
2024-03-25T11:01:23.404Z,35.76
2024-03-25T11:03:54.648Z,35.15
2024-03-25T11:06:25.660Z,33.42
2024-03-25T11:09:05.124Z,34.46
2024-03-25T11:11:36.624Z,33.76
2024-03-25T11:14:17.288Z,33.50
2024-03-25T11:16:54.952Z,34.39
2024-03-25T11:19:30.246Z,34.25
2024-03-25T11:22:12.347Z,34.92
2024-03-25T11:24:47.008Z,34.12
2024-03-25T11:27:23.088Z,34.59
2024-03-25T11:29:53.832Z,34.44
2024-03-25T11:32:24.686Z,34.07
2024-03-25T11:34:55.474Z,34.10
2024-03-25T11:37:27.028Z,34.56
2024-03-25T11:40:06.061Z,32.80
2024-03-25T11:42:37.516Z,32.31
2024-03-25T11:45:16.261Z,32.14
2024-03-25T11:47:48.636Z,32.11
2024-03-25T11:50:21.049Z,31.22
2024-03-25T11:52:51.971Z,31.74
2024-03-25T11:55:22.796Z,31.74
2024-03-25T11:57:59.466Z,31.51
2024-03-25T12:00:30.342Z,31.38
2024-03-25T12:03:02.178Z,32.00
2024-03-25T12:05:33.095Z,32.23
2024-03-25T12:08:04.181Z,31.93
2024-03-25T12:10:49.185Z,31.74
2024-03-25T12:13:21.170Z,31.17
2024-03-25T12:15:52.289Z,30.85
2024-03-25T12:18:23.528Z,30.18
2024-03-25T12:20:54.233Z,29.98
2024-03-25T12:23:25.107Z,29.72
2024-03-25T12:25:56.087Z,29.68
2024-03-25T12:28:27.333Z,29.60
2024-03-25T12:30:58.561Z,28.71
2024-03-25T12:33:29.375Z,29.78
2024-03-25T12:36:00.241Z,30.50
2024-03-25T12:38:33.307Z,30.75
2024-03-25T12:41:08.798Z,29.85
2024-03-25T12:43:44.965Z,30.78
2024-03-25T12:46:16.584Z,29.73
2024-03-25T12:48:48.204Z,29.78
2024-03-25T12:51:19.091Z,30.54
2024-03-25T12:53:49.885Z,29.92
2024-03-25T12:56:20.701Z,30.67
2024-03-25T12:58:51.511Z,29.89
2024-03-25T13:01:22.315Z,29.53
2024-03-25T13:03:53.279Z,30.59
2024-03-25T13:06:24.332Z,30.81
2024-03-25T13:08:55.226Z,29.90
2024-03-25T13:11:26.312Z,30.35
2024-03-25T13:13:57.110Z,30.82
2024-03-25T13:16:28.583Z,30.41
2024-03-25T13:18:59.719Z,30.33
2024-03-25T13:21:30.679Z,30.44
2024-03-25T13:24:01.669Z,29.76
2024-03-25T13:26:32.723Z,30.18
2024-03-25T13:29:04.036Z,29.96
2024-03-25T13:31:34.907Z,30.54
2024-03-25T13:34:05.789Z,30.10
2024-03-25T13:36:36.666Z,30.27
2024-03-25T13:39:10.067Z,30.79
2024-03-25T13:41:41.015Z,30.50
2024-03-25T13:44:11.859Z,30.35
2024-03-25T13:46:42.594Z,30.79
2024-03-25T13:49:16.574Z,30.15
2024-03-25T13:51:47.230Z,29.61
2024-03-25T13:54:17.919Z,30.46
2024-03-25T13:56:49.233Z,30.00
2024-03-25T13:59:21.216Z,29.64
2024-03-25T14:01:52.654Z,30.63
2024-03-25T14:04:23.494Z,30.77
2024-03-25T14:06:54.650Z,30.91
2024-03-25T14:09:29.411Z,31.63
2024-03-25T14:12:00.199Z,31.61
2024-03-25T14:14:31.214Z,31.32
2024-03-25T14:17:02.248Z,31.41
2024-03-25T14:19:33.848Z,31.75
2024-03-25T14:22:04.745Z,31.68
2024-03-25T14:24:35.644Z,31.80
2024-03-25T14:27:06.760Z,31.53
2024-03-25T14:29:37.625Z,31.80
2024-03-25T14:32:08.596Z,32.48
2024-03-25T14:34:39.409Z,32.48
2024-03-25T14:37:28.756Z,32.46
2024-03-25T14:40:05.930Z,32.67
2024-03-25T14:42:38.191Z,32.75
2024-03-25T14:45:10.786Z,32.64
2024-03-25T14:47:41.660Z,32.62
2024-03-25T14:50:13.648Z,32.55
2024-03-25T14:52:44.969Z,32.31
2024-03-25T14:55:15.946Z,32.24
2024-03-25T14:57:46.763Z,32.43
2024-03-25T15:00:19.519Z,32.62
2024-03-25T15:02:50.542Z,32.28
2024-03-25T15:05:22.142Z,32.01
2024-03-25T15:07:53.166Z,32.13
2024-03-25T15:10:24.107Z,32.21
2024-03-25T15:12:55.413Z,32.13
2024-03-25T15:15:26.514Z,31.78
2024-03-25T15:17:57.595Z,32.17
2024-03-25T15:20:28.888Z,32.34
2024-03-25T15:23:00.061Z,32.45
2024-03-25T15:25:31.327Z,32.70
2024-03-25T15:28:03.676Z,32.53
2024-03-25T15:30:41.707Z,32.22
2024-03-25T15:33:12.835Z,32.40
2024-03-25T15:35:44.207Z,32.43
2024-03-25T15:38:15.352Z,32.44
2024-03-25T15:40:52.353Z,32.33
2024-03-25T15:43:23.884Z,32.64
2024-03-25T15:46:00.088Z,32.73
2024-03-25T15:48:31.147Z,33.38
2024-03-25T15:51:03.779Z,33.66
2024-03-25T15:53:34.791Z,33.77
2024-03-25T15:56:08.316Z,33.76
2024-03-25T15:58:39.472Z,33.64
2024-03-25T16:01:10.681Z,33.61
2024-03-25T16:03:41.826Z,33.65
2024-03-25T16:06:13.932Z,33.80
2024-03-25T16:08:45.431Z,34.09
2024-03-25T16:11:21.286Z,34.24
2024-03-25T16:13:52.684Z,34.50
2024-03-25T16:16:23.829Z,34.41
2024-03-25T16:18:55.206Z,34.46
2024-03-25T16:21:27.314Z,33.77
2024-03-25T16:23:58.402Z,33.82
2024-03-25T16:26:29.440Z,33.82
2024-03-25T16:29:00.410Z,33.67
2024-03-25T16:31:32.162Z,33.81
2024-03-25T16:34:03.212Z,33.91
2024-03-25T16:36:35.055Z,33.88
2024-03-25T16:39:06.681Z,33.98
2024-03-25T16:41:39.355Z,34.21
2024-03-25T16:44:10.530Z,34.25
2024-03-25T16:46:41.625Z,34.79
2024-03-25T16:49:13.530Z,34.61
2024-03-25T16:51:45.110Z,35.17
2024-03-25T16:54:16.063Z,35.53
2024-03-25T16:56:47.039Z,35.44
2024-03-25T16:59:17.902Z,35.47
2024-03-25T17:01:48.842Z,35.81
2024-03-25T17:04:20.339Z,36.01
2024-03-25T17:06:51.415Z,35.88
2024-03-25T17:09:22.341Z,36.20
2024-03-25T17:11:53.635Z,36.32
2024-03-25T17:14:25.353Z,36.81
2024-03-25T17:16:57.106Z,37.11
2024-03-25T17:19:28.379Z,36.94
2024-03-25T17:22:02.647Z,37.72
2024-03-25T17:24:33.665Z,38.06
2024-03-25T17:27:05.555Z,37.64
2024-03-25T17:29:37.034Z,37.67
2024-03-25T17:32:08.538Z,37.85
2024-03-25T17:34:39.389Z,38.58
2024-03-25T17:37:10.312Z,38.40
2024-03-25T17:39:41.099Z,38.02
2024-03-25T17:42:13.939Z,37.62
2024-03-25T17:44:48.985Z,38.48
2024-03-25T17:47:20.240Z,38.79
2024-03-25T17:49:51.114Z,38.82
2024-03-25T17:52:22.451Z,41.34
2024-03-25T17:54:53.418Z,39.75
2024-03-25T17:57:24.429Z,41.04
2024-03-25T17:59:55.531Z,39.43
2024-03-25T18:02:26.589Z,42.01
2024-03-25T18:04:57.815Z,42.07
2024-03-25T18:07:29.590Z,41.08
2024-03-25T18:10:00.701Z,42.01
2024-03-25T18:12:31.619Z,42.83
2024-03-25T18:15:02.807Z,41.99
2024-03-25T18:17:34.578Z,42.91
2024-03-25T18:20:08.055Z,43.54
2024-03-25T18:22:39.248Z,42.38
2024-03-25T18:25:11.338Z,43.63
2024-03-25T18:27:42.874Z,45.05
2024-03-25T18:30:15.696Z,45.14
2024-03-25T18:32:47.595Z,45.65
2024-03-25T18:35:18.730Z,43.88
2024-03-25T18:37:49.863Z,46.77
2024-03-25T18:40:22.339Z,46.51
2024-03-25T18:42:53.287Z,45.56
2024-03-25T18:45:24.264Z,44.57
2024-03-25T18:47:55.371Z,44.39
2024-03-25T18:50:26.614Z,47.06
2024-03-25T18:52:57.939Z,48.78
2024-03-25T18:55:29.018Z,48.12
2024-03-25T18:58:00.295Z,46.04
2024-03-25T19:00:31.424Z,47.26
2024-03-25T19:03:02.548Z,46.97
2024-03-25T19:05:33.594Z,48.38
2024-03-25T19:08:05.668Z,49.47
2024-03-25T19:10:36.589Z,48.59
2024-03-25T19:13:08.197Z,49.27
2024-03-25T19:15:40.427Z,50.01
2024-03-25T19:18:11.859Z,48.62
2024-03-25T19:20:42.830Z,47.85
2024-03-25T19:23:13.836Z,48.98
2024-03-25T19:25:44.775Z,47.77
2024-03-25T19:28:16.076Z,48.16
2024-03-25T19:30:47.524Z,49.25
2024-03-25T19:33:18.529Z,49.00
2024-03-25T19:35:52.602Z,47.90
2024-03-25T19:38:23.958Z,48.56
2024-03-25T19:40:55.105Z,48.09
2024-03-25T19:43:26.444Z,48.29
2024-03-25T19:45:57.544Z,48.09
2024-03-25T19:48:29.119Z,48.26
2024-03-25T19:51:00.032Z,48.25
2024-03-25T19:53:31.430Z,48.27
2024-03-25T19:56:05.004Z,48.94
2024-03-25T19:58:35.969Z,50.40
2024-03-25T20:01:11.162Z,47.67
2024-03-25T20:03:42.267Z,49.98
2024-03-25T20:06:15.720Z,48.81
2024-03-25T20:08:47.518Z,48.87
2024-03-25T20:11:18.487Z,48.76
2024-03-25T20:13:49.369Z,48.71
2024-03-25T20:16:21.243Z,48.85
2024-03-25T20:18:52.273Z,48.58
2024-03-25T20:21:23.279Z,49.12
2024-03-25T20:23:54.211Z,48.02
2024-03-25T20:26:25.297Z,49.36
2024-03-25T20:28:56.388Z,48.48
2024-03-25T20:31:27.223Z,49.71
2024-03-25T20:33:58.398Z,50.00
2024-03-25T20:36:29.379Z,49.39
2024-03-25T20:39:00.353Z,50.92
2024-03-25T20:41:31.315Z,49.64
2024-03-25T20:44:03.964Z,49.44
2024-03-25T20:46:35.729Z,49.72
2024-03-25T20:49:08.051Z,49.58
2024-03-25T20:51:39.466Z,51.23
2024-03-25T20:54:10.858Z,51.45
2024-03-25T20:56:41.855Z,50.54
2024-03-25T20:59:13.007Z,50.18
2024-03-25T21:01:44.086Z,49.90
2024-03-25T21:04:15.114Z,51.23
2024-03-25T21:06:46.662Z,50.87
2024-03-25T21:09:17.657Z,50.91
2024-03-25T21:11:48.510Z,51.23
2024-03-25T21:14:19.826Z,50.98
2024-03-25T21:16:50.754Z,50.80
2024-03-25T21:19:23.055Z,50.48
2024-03-25T21:21:53.913Z,50.69
2024-03-25T21:24:25.136Z,50.25
2024-03-25T21:26:56.206Z,50.39
2024-03-25T21:29:27.174Z,50.87
2024-03-25T21:31:58.135Z,50.28
2024-03-25T21:34:29.951Z,50.50
2024-03-25T21:37:01.148Z,51.23
2024-03-25T21:39:32.034Z,51.89
2024-03-25T21:42:03.165Z,51.32
2024-03-25T21:44:34.123Z,50.73
2024-03-25T21:47:06.824Z,51.33
2024-03-25T21:49:37.964Z,51.06
2024-03-25T21:52:09.752Z,51.27
2024-03-25T21:54:41.625Z,50.91
2024-03-25T21:57:12.431Z,52.04
2024-03-25T21:59:43.429Z,51.77
2024-03-25T22:02:14.380Z,51.59
2024-03-25T22:04:49.623Z,51.62
2024-03-25T22:07:20.422Z,51.71
2024-03-25T22:09:51.885Z,52.87
2024-03-25T22:12:22.781Z,53.39
2024-03-25T22:14:54.566Z,51.39
2024-03-25T22:17:25.608Z,52.00
2024-03-25T22:19:57.044Z,52.65
2024-03-25T22:22:28.255Z,52.03
2024-03-25T22:24:59.359Z,52.46
2024-03-25T22:27:30.277Z,52.74
2024-03-25T22:30:01.626Z,51.95
2024-03-25T22:32:33.008Z,51.93
2024-03-25T22:35:03.956Z,51.99
2024-03-25T22:37:40.241Z,52.12
2024-03-25T22:40:14.939Z,52.20
2024-03-25T22:42:46.515Z,51.58
2024-03-25T22:45:17.770Z,51.82
2024-03-25T22:47:48.633Z,52.01
2024-03-25T22:50:19.735Z,51.69
2024-03-25T22:52:50.751Z,51.76
2024-03-25T22:55:22.361Z,51.89
2024-03-25T22:57:53.233Z,51.43
2024-03-25T23:00:24.176Z,51.46
2024-03-25T23:02:55.011Z,51.94
2024-03-25T23:05:25.949Z,51.98
2024-03-25T23:07:56.769Z,51.76
2024-03-25T23:10:27.615Z,51.59
2024-03-25T23:12:58.707Z,51.56
2024-03-25T23:15:29.623Z,52.49
2024-03-25T23:18:00.491Z,52.12
2024-03-25T23:20:31.900Z,52.86
2024-03-25T23:23:03.068Z,53.33
2024-03-25T23:25:33.970Z,52.45
2024-03-25T23:28:05.256Z,52.78
2024-03-25T23:30:36.724Z,52.43
2024-03-25T23:33:08.166Z,52.65
2024-03-25T23:35:39.093Z,52.36
2024-03-25T23:38:10.014Z,52.72
2024-03-25T23:40:40.968Z,52.78
2024-03-25T23:43:13.214Z,53.09
2024-03-25T23:45:44.204Z,51.57
2024-03-25T23:48:15.017Z,52.03
2024-03-25T23:50:46.731Z,52.09
2024-03-25T23:53:18.191Z,52.26
2024-03-25T23:55:49.583Z,52.60
2024-03-25T23:58:20.459Z,52.48
